Time;durP1;ratioP1;P1;durP2;ratioP2;P2;SDS_P1;SDS_P2;PMS_P1;PMS_P2;Temp;Humidity;BMP_temperature;BMP_pressure;BME280_temperature;BME280_humidity;BME280_pressure;Samples;Min_cycle;Max_cycle;Signal;HPM_P1;HPM_P2
2021/10/05 00:01:35;;;;;;;23.38;14.48;;;;;;;;;;5040585;28;20009;-61
2021/10/05 00:04:00;;;;;;;18.23;11.68;;;;;;;;;;5037193;28;20032;-60
2021/10/05 00:06:26;;;;;;;22.40;13.40;;;;;;;;;;5041458;28;20108;-60
2021/10/05 00:08:51;;;;;;;20.80;12.85;;;;;;;;;;5039359;28;20116;-61
2021/10/05 00:11:17;;;;;;;20.52;14.10;;;;;;;;;;5040045;28;20177;-62
2021/10/05 00:13:42;;;;;;;19.73;13.05;;;;;;;;;;5037751;28;20091;-60
2021/10/05 00:16:08;;;;;;;20.27;13.35;;;;;;;;;;5035185;28;20032;-61
2021/10/05 00:18:35;;;;;;;22.80;14.13;;;;;;;;;;5042128;28;20025;-61
2021/10/05 00:21:00;;;;;;;20.35;13.00;;;;;;;;;;5039397;28;20029;-60
2021/10/05 00:23:26;;;;;;;28.20;15.32;;;;;;;;;;5035927;28;20028;-59
2021/10/05 00:25:51;;;;;;;21.35;13.07;;;;;;;;;;5036383;28;20095;-61
2021/10/05 00:28:16;;;;;;;29.08;16.95;;;;;;;;;;5037581;28;20049;-61
2021/10/05 00:30:42;;;;;;;18.52;12.73;;;;;;;;;;5041822;28;20379;-59
2021/10/05 00:33:07;;;;;;;19.67;12.57;;;;;;;;;;5038888;28;20049;-61
2021/10/05 00:35:33;;;;;;;18.40;12.52;;;;;;;;;;5044513;28;20478;-61
2021/10/05 00:38:00;;;;;;;18.02;12.65;;;;;;;;;;5037505;28;20415;-61
2021/10/05 00:40:25;;;;;;;18.58;11.65;;;;;;;;;;5038520;28;20494;-59
2021/10/05 00:42:51;;;;;;;21.55;11.88;;;;;;;;;;5038546;28;20025;-64
2021/10/05 00:45:16;;;;;;;22.10;13.07;;;;;;;;;;5040878;28;20021;-62
2021/10/05 00:47:41;;;;;;;23.90;12.32;;;;;;;;;;5037724;28;20394;-61
2021/10/05 00:50:08;;;;;;;20.48;13.25;;;;;;;;;;5039851;28;20586;-59
2021/10/05 00:52:34;;;;;;;19.02;11.93;;;;;;;;;;5038010;28;20026;-61
2021/10/05 00:55:00;;;;;;;16.48;10.75;;;;;;;;;;5038468;28;20021;-61
2021/10/05 00:57:25;;;;;;;21.23;13.25;;;;;;;;;;5037870;28;20030;-61
2021/10/05 00:59:52;;;;;;;18.88;12.48;;;;;;;;;;5038280;28;20047;-61
2021/10/05 01:02:17;;;;;;;17.63;12.25;;;;;;;;;;5040180;28;20113;-59
2021/10/05 01:04:43;;;;;;;19.88;12.55;;;;;;;;;;5038242;28;20107;-61
2021/10/05 01:07:10;;;;;;;18.17;12.38;;;;;;;;;;5037730;28;20455;-60
2021/10/05 01:09:35;;;;;;;21.08;13.70;;;;;;;;;;5036534;28;20025;-60
2021/10/05 01:12:01;;;;;;;18.27;12.45;;;;;;;;;;5035396;28;20078;-61
2021/10/05 01:14:27;;;;;;;17.58;11.38;;;;;;;;;;5032264;28;20025;-61
2021/10/05 01:16:53;;;;;;;19.02;11.05;;;;;;;;;;5037585;28;20418;-62
2021/10/05 01:19:19;;;;;;;21.10;13.02;;;;;;;;;;5035731;28;20024;-60
2021/10/05 01:21:44;;;;;;;20.20;13.65;;;;;;;;;;5037641;28;20036;-59
2021/10/05 01:24:11;;;;;;;18.23;12.10;;;;;;;;;;5029798;28;20032;-61
2021/10/05 01:26:37;;;;;;;20.60;12.38;;;;;;;;;;5035641;28;20121;-60
2021/10/05 01:29:05;;;;;;;28.10;16.02;;;;;;;;;;5041084;28;20055;-60
2021/10/05 01:31:37;;;;;;;24.10;15.27;;;;;;;;;;5036702;28;20036;-59
2021/10/05 01:34:03;;;;;;;25.52;15.55;;;;;;;;;;5034777;28;20381;-61
2021/10/05 01:36:28;;;;;;;25.30;14.00;;;;;;;;;;5036812;28;20124;-60
2021/10/05 01:38:54;;;;;;;28.13;15.25;;;;;;;;;;5035574;28;20044;-60
2021/10/05 01:41:19;;;;;;;22.02;14.35;;;;;;;;;;5039618;28;20041;-60
2021/10/05 01:43:44;;;;;;;24.23;14.25;;;;;;;;;;5035185;28;20087;-60
2021/10/05 01:46:13;;;;;;;20.38;13.27;;;;;;;;;;5034824;28;20026;-60
2021/10/05 01:48:42;;;;;;;24.05;14.68;;;;;;;;;;5037214;28;20025;-60
2021/10/05 01:51:07;;;;;;;23.58;14.07;;;;;;;;;;5037118;28;20021;-61
2021/10/05 01:53:33;;;;;;;21.75;13.65;;;;;;;;;;5036220;28;20028;-61
2021/10/05 01:55:58;;;;;;;34.38;17.55;;;;;;;;;;5033817;28;20033;-61
2021/10/05 01:58:23;;;;;;;26.33;15.55;;;;;;;;;;5037523;28;20080;-60
2021/10/05 02:00:49;;;;;;;36.08;18.23;;;;;;;;;;5036503;28;20053;-61
2021/10/05 02:03:15;;;;;;;30.75;16.60;;;;;;;;;;5036168;28;20036;-59
2021/10/05 02:05:43;;;;;;;36.22;18.35;;;;;;;;;;5032779;28;20550;-59
2021/10/05 02:08:09;;;;;;;23.85;14.60;;;;;;;;;;5034557;28;20025;-61
2021/10/05 02:10:34;;;;;;;27.33;14.48;;;;;;;;;;5035180;28;20021;-61
2021/10/05 02:13:00;;;;;;;31.17;17.25;;;;;;;;;;5036746;28;20032;-61
2021/10/05 02:15:25;;;;;;;21.80;14.00;;;;;;;;;;5039030;28;20025;-59
2021/10/05 02:17:50;;;;;;;30.50;16.45;;;;;;;;;;5038253;28;20427;-60
2021/10/05 02:20:16;;;;;;;22.35;13.93;;;;;;;;;;5034486;28;20440;-62
2021/10/05 02:22:41;;;;;;;20.63;13.35;;;;;;;;;;5037026;28;20434;-60
2021/10/05 02:25:07;;;;;;;20.70;13.52;;;;;;;;;;5034156;28;20025;-62
2021/10/05 02:27:32;;;;;;;19.65;11.82;;;;;;;;;;5038940;28;20101;-60
2021/10/05 02:29:58;;;;;;;22.50;12.35;;;;;;;;;;5036805;28;20475;-60
2021/10/05 02:32:23;;;;;;;20.02;12.38;;;;;;;;;;5039975;28;20024;-62
2021/10/05 02:34:49;;;;;;;20.15;12.80;;;;;;;;;;5042472;28;20028;-60
2021/10/05 02:37:14;;;;;;;20.92;13.32;;;;;;;;;;5039618;28;20128;-57
2021/10/05 02:39:40;;;;;;;16.30;11.25;;;;;;;;;;5036517;28;20025;-58
2021/10/05 02:42:05;;;;;;;22.95;13.43;;;;;;;;;;5037445;28;20475;-60
2021/10/05 02:44:30;;;;;;;21.52;13.02;;;;;;;;;;5037897;28;20024;-58
2021/10/05 02:46:56;;;;;;;19.27;12.13;;;;;;;;;;5038511;28;20061;-58
2021/10/05 02:49:21;;;;;;;20.85;13.30;;;;;;;;;;5036716;28;20063;-61
2021/10/05 02:51:46;;;;;;;19.75;12.90;;;;;;;;;;5038103;28;20021;-61
2021/10/05 02:54:12;;;;;;;19.58;12.43;;;;;;;;;;5036756;28;20079;-62
2021/10/05 02:56:37;;;;;;;20.20;12.98;;;;;;;;;;5036321;28;20038;-62
2021/10/05 02:59:02;;;;;;;27.75;14.98;;;;;;;;;;5036727;28;20368;-60
2021/10/05 03:01:27;;;;;;;22.15;12.23;;;;;;;;;;5034963;28;20033;-61
2021/10/05 03:03:52;;;;;;;26.25;13.77;;;;;;;;;;5036189;28;20141;-61
2021/10/05 03:06:18;;;;;;;22.27;12.68;;;;;;;;;;5038763;28;20029;-62
2021/10/05 03:08:43;;;;;;;24.35;13.80;;;;;;;;;;5035447;28;20033;-61
2021/10/05 03:11:09;;;;;;;16.80;11.43;;;;;;;;;;5033595;28;20033;-62
2021/10/05 03:13:35;;;;;;;17.73;11.35;;;;;;;;;;5034764;28;20044;-61
2021/10/05 03:16:07;;;;;;;19.92;12.55;;;;;;;;;;5036955;28;20474;-61
2021/10/05 03:18:32;;;;;;;22.55;13.65;;;;;;;;;;5034667;28;20021;-60
2021/10/05 03:20:58;;;;;;;23.65;13.68;;;;;;;;;;5035402;28;20412;-62
2021/10/05 03:23:23;;;;;;;22.20;14.18;;;;;;;;;;5034677;28;20029;-60
2021/10/05 03:25:48;;;;;;;26.17;13.25;;;;;;;;;;5035231;28;20068;-61
2021/10/05 03:28:14;;;;;;;26.88;15.27;;;;;;;;;;5039249;28;20124;-61
2021/10/05 03:30:39;;;;;;;24.40;15.48;;;;;;;;;;5036488;28;20049;-62
2021/10/05 03:33:04;;;;;;;27.02;15.55;;;;;;;;;;5036054;28;20104;-61
2021/10/05 03:35:30;;;;;;;24.65;15.23;;;;;;;;;;5037752;28;20081;-59
2021/10/05 03:37:55;;;;;;;22.75;14.25;;;;;;;;;;5037636;28;20033;-62
2021/10/05 03:40:21;;;;;;;22.73;13.23;;;;;;;;;;5036388;28;20108;-61
2021/10/05 03:42:46;;;;;;;21.48;12.00;;;;;;;;;;5039740;28;20475;-61
2021/10/05 03:45:11;;;;;;;27.25;14.88;;;;;;;;;;5037574;28;20021;-61
2021/10/05 03:47:36;;;;;;;21.60;13.20;;;;;;;;;;5035392;28;20375;-61
2021/10/05 03:50:06;;;;;;;22.67;12.23;;;;;;;;;;5038317;28;20056;-61
2021/10/05 03:52:31;;;;;;;21.75;13.85;;;;;;;;;;5039654;28;20113;-61
2021/10/05 03:54:56;;;;;;;22.92;15.15;;;;;;;;;;5044285;28;20024;-61
2021/10/05 03:57:22;;;;;;;22.63;13.73;;;;;;;;;;5048255;28;20025;-60
2021/10/05 03:59:47;;;;;;;27.65;14.40;;;;;;;;;;5046749;28;20463;-61
2021/10/05 04:02:12;;;;;;;28.02;15.25;;;;;;;;;;5042407;28;20037;-61
2021/10/05 04:04:38;;;;;;;31.42;15.88;;;;;;;;;;5039071;28;20443;-61
2021/10/05 04:07:03;;;;;;;30.00;17.08;;;;;;;;;;5038954;28;20345;-59
2021/10/05 04:09:28;;;;;;;35.65;16.80;;;;;;;;;;5036797;28;20061;-60
2021/10/05 04:11:54;;;;;;;33.33;17.25;;;;;;;;;;5037918;28;20022;-61
2021/10/05 04:14:19;;;;;;;31.70;17.38;;;;;;;;;;5039412;28;20470;-60
2021/10/05 04:16:44;;;;;;;30.42;17.50;;;;;;;;;;5041726;28;20312;-61
2021/10/05 04:19:10;;;;;;;33.17;16.55;;;;;;;;;;5038762;28;20033;-60
2021/10/05 04:21:35;;;;;;;35.95;18.35;;;;;;;;;;5037353;28;20025;-61
2021/10/05 04:24:00;;;;;;;29.88;15.95;;;;;;;;;;5041598;28;20445;-61
2021/10/05 04:26:25;;;;;;;31.88;18.42;;;;;;;;;;5039374;28;20029;-59
2021/10/05 04:28:51;;;;;;;35.17;18.63;;;;;;;;;;5037363;28;20032;-60
2021/10/05 04:31:16;;;;;;;25.48;15.43;;;;;;;;;;5036488;28;20017;-60
2021/10/05 04:33:41;;;;;;;25.30;15.02;;;;;;;;;;5040843;28;20049;-59
2021/10/05 04:36:06;;;;;;;29.00;16.13;;;;;;;;;;5037414;28;20407;-60
2021/10/05 04:38:32;;;;;;;31.65;17.40;;;;;;;;;;5039979;28;20025;-61
2021/10/05 04:40:57;;;;;;;35.15;16.08;;;;;;;;;;5038881;28;20108;-60
2021/10/05 04:43:22;;;;;;;33.28;16.83;;;;;;;;;;5037291;28;20014;-60
2021/10/05 04:45:47;;;;;;;29.88;19.02;;;;;;;;;;5036621;28;20039;-58
2021/10/05 04:48:13;;;;;;;34.53;18.08;;;;;;;;;;5036582;28;20025;-60
2021/10/05 04:50:38;;;;;;;35.38;19.90;;;;;;;;;;5039576;28;20558;-60
2021/10/05 04:53:03;;;;;;;31.70;16.65;;;;;;;;;;5037815;28;20436;-60
2021/10/05 04:55:28;;;;;;;28.20;15.98;;;;;;;;;;5035677;28;20029;-61
2021/10/05 04:57:54;;;;;;;27.52;14.85;;;;;;;;;;5036803;28;20022;-64
2021/10/05 05:00:19;;;;;;;24.98;14.98;;;;;;;;;;5037179;28;20033;-60
2021/10/05 05:02:44;;;;;;;21.45;13.77;;;;;;;;;;5037521;28;20116;-59
2021/10/05 05:05:10;;;;;;;28.33;15.98;;;;;;;;;;5036069;28;20163;-62
2021/10/05 05:07:35;;;;;;;19.55;12.70;;;;;;;;;;5034229;28;20033;-60
2021/10/05 05:10:02;;;;;;;20.95;14.10;;;;;;;;;;5035494;28;20036;-61
2021/10/05 05:12:28;;;;;;;23.33;14.43;;;;;;;;;;5037227;28;20025;-56
2021/10/05 05:14:53;;;;;;;25.88;13.63;;;;;;;;;;5041996;28;20356;-59
2021/10/05 05:17:18;;;;;;;22.42;14.35;;;;;;;;;;5036956;28;20584;-59
2021/10/05 05:19:44;;;;;;;30.23;16.17;;;;;;;;;;5036941;28;20034;-59
2021/10/05 05:22:09;;;;;;;23.58;14.27;;;;;;;;;;5040547;28;20507;-58
2021/10/05 05:24:35;;;;;;;23.23;13.48;;;;;;;;;;5043003;28;20024;-59
2021/10/05 05:27:00;;;;;;;19.45;12.27;;;;;;;;;;5037094;28;20053;-58
2021/10/05 05:29:25;;;;;;;18.88;12.30;;;;;;;;;;5036455;28;20113;-59
2021/10/05 05:31:52;;;;;;;18.83;12.68;;;;;;;;;;5040114;28;20024;-58
2021/10/05 05:34:17;;;;;;;25.38;13.55;;;;;;;;;;5040685;28;20482;-57
2021/10/05 05:36:42;;;;;;;20.67;13.27;;;;;;;;;;5037402;28;20048;-58
2021/10/05 05:39:07;;;;;;;18.20;11.20;;;;;;;;;;5040131;28;20032;-59
2021/10/05 05:41:33;;;;;;;14.75;11.57;;;;;;;;;;5035771;28;20017;-57
2021/10/05 05:43:58;;;;;;;21.00;12.35;;;;;;;;;;5032323;28;20249;-58
2021/10/05 05:46:23;;;;;;;16.13;10.85;;;;;;;;;;5035210;28;20086;-59
2021/10/05 05:48:48;;;;;;;18.65;12.23;;;;;;;;;;5034318;28;20021;-58
2021/10/05 05:51:14;;;;;;;16.30;11.45;;;;;;;;;;5031632;28;20072;-59
2021/10/05 05:53:39;;;;;;;16.35;11.23;;;;;;;;;;5033269;28;20021;-57
2021/10/05 05:56:04;;;;;;;16.40;12.32;;;;;;;;;;5034457;28;20112;-60
2021/10/05 05:58:29;;;;;;;12.80;10.20;;;;;;;;;;5037967;28;20025;-59
2021/10/05 06:00:55;;;;;;;16.65;11.52;;;;;;;;;;5038702;28;20044;-60
2021/10/05 06:03:20;;;;;;;17.77;12.25;;;;;;;;;;5034744;28;20029;-58
2021/10/05 06:05:46;;;;;;;15.85;10.73;;;;;;;;;;5038021;28;20052;-58
2021/10/05 06:08:11;;;;;;;15.85;12.32;;;;;;;;;;5037900;28;20025;-59
2021/10/05 06:10:37;;;;;;;14.15;9.70;;;;;;;;;;5038918;28;20535;-60
2021/10/05 06:13:02;;;;;;;15.77;10.63;;;;;;;;;;5031921;28;20018;-60
2021/10/05 06:15:28;;;;;;;12.30;9.23;;;;;;;;;;5034944;28;20059;-59
2021/10/05 06:17:53;;;;;;;11.73;9.02;;;;;;;;;;5032324;28;20048;-58
2021/10/05 06:20:23;;;;;;;10.73;9.43;;;;;;;;;;5035139;28;20483;-57
2021/10/05 06:22:48;;;;;;;10.82;9.23;;;;;;;;;;5039962;28;20032;-56
2021/10/05 06:25:16;;;;;;;15.50;10.48;;;;;;;;;;5034976;28;20025;-61
2021/10/05 06:27:42;;;;;;;12.60;9.80;;;;;;;;;;5035879;28;20052;-60
2021/10/05 06:30:09;;;;;;;11.40;9.25;;;;;;;;;;5037786;28;20478;-61
2021/10/05 06:32:34;;;;;;;13.70;10.05;;;;;;;;;;5034090;28;20070;-59
2021/10/05 06:34:59;;;;;;;15.10;10.55;;;;;;;;;;5034402;28;20021;-60
2021/10/05 06:37:24;;;;;;;17.25;9.18;;;;;;;;;;5040077;28;20523;-62
2021/10/05 06:39:50;;;;;;;16.67;9.80;;;;;;;;;;5042004;28;20028;-62
2021/10/05 06:42:15;;;;;;;12.85;9.65;;;;;;;;;;5040803;28;20071;-59
2021/10/05 06:44:41;;;;;;;12.63;10.30;;;;;;;;;;5040065;28;20025;-61
2021/10/05 06:47:06;;;;;;;11.55;9.77;;;;;;;;;;5034563;28;20086;-61
2021/10/05 06:49:32;;;;;;;17.52;10.60;;;;;;;;;;5035248;28;20513;-62
2021/10/05 06:51:57;;;;;;;12.38;10.02;;;;;;;;;;5037486;28;20426;-60
2021/10/05 06:54:23;;;;;;;14.52;10.10;;;;;;;;;;5034996;28;20025;-61
2021/10/05 06:56:48;;;;;;;11.40;9.05;;;;;;;;;;5036078;28;20285;-61
2021/10/05 06:59:13;;;;;;;13.95;9.55;;;;;;;;;;5036617;28;20029;-61
2021/10/05 07:01:39;;;;;;;13.85;8.65;;;;;;;;;;5037795;28;20135;-60
2021/10/05 07:04:04;;;;;;;16.48;8.82;;;;;;;;;;5034801;28;20032;-62
2021/10/05 07:06:30;;;;;;;11.10;7.45;;;;;;;;;;5035161;28;20028;-61
2021/10/05 07:08:56;;;;;;;9.02;7.00;;;;;;;;;;5035984;28;20250;-61
2021/10/05 07:11:21;;;;;;;11.27;8.77;;;;;;;;;;5036578;28;20085;-59
2021/10/05 07:13:46;;;;;;;10.75;8.32;;;;;;;;;;5038669;28;20546;-61
2021/10/05 07:16:12;;;;;;;11.27;8.02;;;;;;;;;;5039516;28;20029;-60
2021/10/05 07:18:37;;;;;;;12.27;7.90;;;;;;;;;;5039448;28;20070;-61
2021/10/05 07:21:02;;;;;;;13.25;6.80;;;;;;;;;;5040204;28;20036;-59
2021/10/05 07:23:28;;;;;;;12.85;7.03;;;;;;;;;;5040582;28;20044;-61
2021/10/05 07:25:53;;;;;;;11.05;8.88;;;;;;;;;;5038472;28;20122;-60
2021/10/05 07:28:19;;;;;;;9.43;6.68;;;;;;;;;;5039320;28;20053;-61
2021/10/05 07:30:46;;;;;;;15.95;8.13;;;;;;;;;;5041768;28;20367;-62
2021/10/05 07:33:11;;;;;;;9.05;6.28;;;;;;;;;;5040124;28;20451;-61
2021/10/05 07:35:37;;;;;;;8.52;6.60;;;;;;;;;;5028299;28;20029;-60
2021/10/05 07:38:02;;;;;;;9.25;6.18;;;;;;;;;;5039336;28;20028;-60
2021/10/05 07:40:28;;;;;;;12.40;6.60;;;;;;;;;;5041401;28;20029;-61
2021/10/05 07:42:55;;;;;;;11.82;7.40;;;;;;;;;;5038908;28;20418;-61
2021/10/05 07:45:20;;;;;;;10.52;5.93;;;;;;;;;;5040682;28;20057;-60
2021/10/05 07:47:45;;;;;;;9.15;6.20;;;;;;;;;;5039970;28;20293;-60
2021/10/05 07:50:11;;;;;;;11.73;6.30;;;;;;;;;;5041718;28;20482;-61
2021/10/05 07:52:37;;;;;;;11.90;7.13;;;;;;;;;;5039541;28;20447;-61
2021/10/05 07:55:02;;;;;;;14.07;5.32;;;;;;;;;;5038037;28;20578;-61
2021/10/05 07:57:28;;;;;;;7.40;5.38;;;;;;;;;;5037856;28;20458;-60
2021/10/05 07:59:53;;;;;;;8.85;7.22;;;;;;;;;;5038568;28;20053;-61
2021/10/05 08:02:18;;;;;;;11.05;7.00;;;;;;;;;;5038766;28;20025;-61
2021/10/05 08:04:43;;;;;;;11.32;7.47;;;;;;;;;;5036558;28;20026;-66
2021/10/05 08:07:09;;;;;;;9.30;6.10;;;;;;;;;;5036507;28;20116;-61
2021/10/05 08:09:34;;;;;;;11.88;7.78;;;;;;;;;;5037474;28;20018;-59
2021/10/05 08:11:59;;;;;;;7.90;5.32;;;;;;;;;;5038433;28;20110;-61
2021/10/05 08:14:24;;;;;;;8.00;5.50;;;;;;;;;;5037136;28;20368;-61
2021/10/05 08:16:50;;;;;;;9.57;5.93;;;;;;;;;;5038413;28;20036;-62
2021/10/05 08:19:16;;;;;;;7.47;5.47;;;;;;;;;;5037777;28;20162;-62
2021/10/05 08:21:41;;;;;;;13.02;5.97;;;;;;;;;;5035805;28;20342;-59
2021/10/05 08:24:06;;;;;;;10.70;6.65;;;;;;;;;;5039097;28;20029;-63
2021/10/05 08:26:32;;;;;;;6.47;4.93;;;;;;;;;;5037242;28;20040;-62
2021/10/05 08:28:58;;;;;;;7.13;5.50;;;;;;;;;;5038936;28;20026;-62
2021/10/05 08:31:23;;;;;;;10.10;6.65;;;;;;;;;;5040349;28;20075;-61
2021/10/05 08:33:49;;;;;;;10.00;5.97;;;;;;;;;;5038758;28;20025;-62
2021/10/05 08:36:16;;;;;;;6.88;5.22;;;;;;;;;;5037994;28;20064;-66
2021/10/05 08:38:41;;;;;;;6.57;5.70;;;;;;;;;;5037869;28;20623;-61
2021/10/05 08:41:06;;;;;;;13.30;7.00;;;;;;;;;;5038714;28;20112;-61
2021/10/05 08:43:32;;;;;;;11.80;5.45;;;;;;;;;;5039343;28;20053;-63
2021/10/05 08:45:58;;;;;;;12.25;7.20;;;;;;;;;;5038277;28;20025;-63
2021/10/05 08:48:30;;;;;;;9.23;6.43;;;;;;;;;;5039568;28;20021;-63
2021/10/05 08:50:55;;;;;;;10.00;5.63;;;;;;;;;;5038471;28;20032;-63
2021/10/05 08:53:21;;;;;;;8.23;6.78;;;;;;;;;;5038605;28;20022;-62
2021/10/05 08:55:46;;;;;;;9.65;5.82;;;;;;;;;;5039241;28;20032;-63
2021/10/05 08:58:11;;;;;;;9.57;6.78;;;;;;;;;;5035296;28;20056;-65
2021/10/05 09:00:38;;;;;;;9.68;6.88;;;;;;;;;;5037456;28;20044;-65
2021/10/05 09:03:03;;;;;;;11.05;5.45;;;;;;;;;;5037221;28;20057;-65
2021/10/05 09:05:29;;;;;;;10.18;6.05;;;;;;;;;;5037673;28;20065;-65
2021/10/05 09:07:57;;;;;;;9.93;6.72;;;;;;;;;;5037699;28;20033;-65
2021/10/05 09:10:23;;;;;;;8.63;5.70;;;;;;;;;;5037375;28;20021;-65
2021/10/05 09:12:49;;;;;;;8.70;5.70;;;;;;;;;;5037631;28;20024;-65
2021/10/05 09:15:16;;;;;;;9.77;6.25;;;;;;;;;;5037128;28;20029;-65
2021/10/05 09:17:41;;;;;;;12.80;6.15;;;;;;;;;;5038529;28;20024;-65
2021/10/05 09:20:17;;;;;;;7.45;6.05;;;;;;;;;;5040791;28;20025;-65
2021/10/05 09:22:42;;;;;;;12.07;6.07;;;;;;;;;;5041321;28;20502;-65
2021/10/05 09:25:10;;;;;;;10.85;6.10;;;;;;;;;;5040957;28;20033;-65
2021/10/05 09:27:46;;;;;;;9.32;6.70;;;;;;;;;;5038961;28;20052;-65
2021/10/05 09:30:15;;;;;;;6.13;5.13;;;;;;;;;;5037989;28;20021;-65
2021/10/05 09:32:40;;;;;;;10.50;6.15;;;;;;;;;;5038682;28;20059;-65
2021/10/05 09:35:06;;;;;;;7.38;5.72;;;;;;;;;;5037516;28;20055;-65
2021/10/05 09:37:33;;;;;;;8.43;6.40;;;;;;;;;;5038262;28;20451;-64
2021/10/05 09:40:03;;;;;;;14.02;7.22;;;;;;;;;;5036961;28;20387;-62
2021/10/05 09:42:45;;;;;;;8.68;6.63;;;;;;;;;;5021473;28;20017;-61
2021/10/05 09:45:15;;;;;;;15.93;8.10;;;;;;;;;;5038377;28;20029;-63
2021/10/05 09:47:43;;;;;;;11.45;5.97;;;;;;;;;;5037132;28;20104;-63
2021/10/05 09:50:18;;;;;;;10.40;6.05;;;;;;;;;;5036572;28;20036;-64
2021/10/05 09:52:51;;;;;;;9.07;6.45;;;;;;;;;;5039020;28;20029;-64
2021/10/05 09:55:19;;;;;;;6.72;6.10;;;;;;;;;;5035118;28;20024;-63
2021/10/05 09:57:44;;;;;;;7.93;5.50;;;;;;;;;;5035529;28;20532;-63
2021/10/05 10:00:10;;;;;;;9.27;6.15;;;;;;;;;;5037472;28;20017;-63
2021/10/05 10:02:37;;;;;;;6.53;5.88;;;;;;;;;;5039215;28;20029;-63
2021/10/05 10:05:04;;;;;;;6.03;5.43;;;;;;;;;;5039250;28;20090;-63
2021/10/05 10:07:30;;;;;;;6.00;5.22;;;;;;;;;;5034866;28;20033;-63
2021/10/05 10:09:56;;;;;;;7.80;6.57;;;;;;;;;;5036947;28;20372;-63
2021/10/05 10:12:21;;;;;;;9.73;5.80;;;;;;;;;;5035137;28;20024;-64
2021/10/05 10:14:50;;;;;;;6.07;5.47;;;;;;;;;;5038595;28;20052;-63
2021/10/05 10:17:22;;;;;;;7.35;5.45;;;;;;;;;;5037473;28;20387;-63
2021/10/05 10:19:47;;;;;;;10.13;6.60;;;;;;;;;;5036573;28;20033;-63
2021/10/05 10:22:12;;;;;;;11.70;6.20;;;;;;;;;;5037962;28;20021;-61
2021/10/05 10:24:51;;;;;;;8.88;6.43;;;;;;;;;;5038320;28;20451;-63
2021/10/05 10:27:17;;;;;;;13.35;7.10;;;;;;;;;;5032661;28;20096;-62
2021/10/05 10:29:42;;;;;;;21.40;9.75;;;;;;;;;;5034206;28;20534;-61
2021/10/05 10:32:09;;;;;;;12.65;7.63;;;;;;;;;;5027931;28;20033;-62
2021/10/05 10:34:36;;;;;;;12.77;8.23;;;;;;;;;;5036606;28;20029;-63
2021/10/05 10:37:08;;;;;;;17.17;8.68;;;;;;;;;;5034936;28;20145;-62
2021/10/05 10:39:38;;;;;;;8.35;6.68;;;;;;;;;;5035890;28;20029;-63
2021/10/05 10:42:06;;;;;;;9.25;6.13;;;;;;;;;;5036850;28;20112;-62
2021/10/05 10:44:33;;;;;;;12.90;8.02;;;;;;;;;;5037093;28;20468;-62
2021/10/05 10:47:13;;;;;;;11.40;7.00;;;;;;;;;;5036535;28;20561;-62
2021/10/05 10:49:39;;;;;;;11.20;6.53;;;;;;;;;;5041355;28;20025;-62
2021/10/05 10:52:05;;;;;;;7.25;6.47;;;;;;;;;;5046392;28;20541;-61
2021/10/05 10:54:30;;;;;;;10.27;6.95;;;;;;;;;;5037939;28;20065;-61
2021/10/05 10:57:03;;;;;;;8.52;7.20;;;;;;;;;;5041996;28;20071;-61
2021/10/05 10:59:29;;;;;;;8.65;6.68;;;;;;;;;;5039817;28;20065;-61
2021/10/05 11:01:59;;;;;;;12.73;8.10;;;;;;;;;;5040969;28;20055;-61
2021/10/05 11:04:24;;;;;;;9.65;6.50;;;;;;;;;;5040967;28;20034;-57
2021/10/05 11:06:51;;;;;;;6.55;5.95;;;;;;;;;;5042066;28;20032;-62
2021/10/05 11:09:17;;;;;;;11.52;7.30;;;;;;;;;;5040425;28;20519;-62
2021/10/05 11:11:58;;;;;;;11.13;8.07;;;;;;;;;;5042961;28;20479;-62
2021/10/05 11:14:23;;;;;;;9.95;6.47;;;;;;;;;;5040702;28;20505;-62
2021/10/05 11:16:59;;;;;;;17.48;8.07;;;;;;;;;;5041721;28;20059;-62
2021/10/05 11:19:32;;;;;;;16.65;8.88;;;;;;;;;;5038398;28;20033;-62
2021/10/05 11:21:58;;;;;;;14.13;8.13;;;;;;;;;;5041731;28;20025;-62
2021/10/05 11:24:33;;;;;;;13.23;9.13;;;;;;;;;;5038299;28;20036;-62
2021/10/05 11:26:59;;;;;;;7.50;6.32;;;;;;;;;;5041592;28;20049;-62
2021/10/05 11:29:25;;;;;;;14.55;8.02;;;;;;;;;;5039570;28;20353;-62
2021/10/05 11:31:54;;;;;;;18.05;8.90;;;;;;;;;;5040710;28;20017;-62
2021/10/05 11:34:19;;;;;;;15.63;8.15;;;;;;;;;;5038960;28;20037;-63
2021/10/05 11:36:45;;;;;;;10.98;6.00;;;;;;;;;;5038957;28;20052;-62
2021/10/05 11:39:17;;;;;;;6.90;6.20;;;;;;;;;;5037704;28;20033;-62
2021/10/05 11:41:43;;;;;;;13.15;8.35;;;;;;;;;;5039126;28;20096;-62
2021/10/05 11:44:15;;;;;;;16.38;8.38;;;;;;;;;;5037247;28;20721;-62
2021/10/05 11:46:50;;;;;;;14.73;7.88;;;;;;;;;;5035995;28;20056;-62
2021/10/05 11:49:19;;;;;;;8.23;5.93;;;;;;;;;;5038396;28;20064;-63
2021/10/05 11:51:44;;;;;;;8.43;6.22;;;;;;;;;;5038998;28;20112;-63
2021/10/05 11:54:16;;;;;;;8.52;5.93;;;;;;;;;;5038884;28;20847;-63
2021/10/05 11:56:41;;;;;;;17.83;8.40;;;;;;;;;;5038061;28;20029;-63
2021/10/05 11:59:07;;;;;;;11.98;7.03;;;;;;;;;;5037374;28;20382;-63
2021/10/05 12:01:32;;;;;;;22.45;8.40;;;;;;;;;;5044008;28;20060;-63
2021/10/05 12:04:04;;;;;;;9.95;5.97;;;;;;;;;;5043019;28;20037;-63
2021/10/05 12:06:33;;;;;;;7.38;6.38;;;;;;;;;;5040366;28;20219;-61
2021/10/05 12:08:59;;;;;;;10.90;6.32;;;;;;;;;;5038169;28;20021;-63
2021/10/05 12:11:44;;;;;;;16.20;8.50;;;;;;;;;;5043337;28;20029;-62
2021/10/05 12:14:11;;;;;;;16.55;8.13;;;;;;;;;;5037547;28;20064;-61
2021/10/05 12:16:36;;;;;;;24.70;10.63;;;;;;;;;;5038532;28;20037;-61
2021/10/05 12:19:02;;;;;;;18.63;10.27;;;;;;;;;;5041251;28;20512;-60
2021/10/05 12:21:27;;;;;;;20.42;10.23;;;;;;;;;;5037683;28;20485;-62
2021/10/05 12:23:54;;;;;;;19.95;9.68;;;;;;;;;;5039058;28;20120;-60
2021/10/05 12:26:20;;;;;;;11.90;7.60;;;;;;;;;;5038921;28;20467;-61
2021/10/05 12:29:00;;;;;;;6.60;5.60;;;;;;;;;;5039286;28;20025;-60
2021/10/05 12:31:28;;;;;;;18.35;10.23;;;;;;;;;;5034893;28;20032;-61
2021/10/05 12:34:13;;;;;;;8.32;5.85;;;;;;;;;;5032945;28;20503;-60
2021/10/05 12:36:38;;;;;;;9.02;5.93;;;;;;;;;;5036547;28;20049;-62
2021/10/05 12:39:14;;;;;;;16.73;6.40;;;;;;;;;;5038904;28;20102;-63
2021/10/05 12:41:39;;;;;;;13.85;6.55;;;;;;;;;;5026225;28;20822;-62
2021/10/05 12:44:18;;;;;;;10.70;7.07;;;;;;;;;;5036027;28;20108;-63
2021/10/05 12:46:58;;;;;;;13.75;7.05;;;;;;;;;;5039299;28;20483;-62
2021/10/05 12:49:23;;;;;;;13.05;6.57;;;;;;;;;;5035813;28;20026;-62
2021/10/05 12:51:49;;;;;;;9.05;5.72;;;;;;;;;;5037550;28;20379;-62
2021/10/05 12:54:15;;;;;;;8.05;6.57;;;;;;;;;;5037228;28;20157;-61
2021/10/05 12:56:40;;;;;;;18.13;8.20;;;;;;;;;;5037508;28;20569;-62
2021/10/05 12:59:06;;;;;;;5.95;5.22;;;;;;;;;;5036829;28;20092;-62
2021/10/05 13:01:36;;;;;;;11.52;6.97;;;;;;;;;;5035956;28;20472;-62
2021/10/05 13:04:11;;;;;;;7.80;6.15;;;;;;;;;;5036816;28;20483;-62
2021/10/05 13:06:37;;;;;;;12.23;6.95;;;;;;;;;;5033615;28;20392;-61
2021/10/05 13:09:04;;;;;;;12.80;8.05;;;;;;;;;;5033243;28;20464;-61
2021/10/05 13:11:30;;;;;;;13.52;7.15;;;;;;;;;;5038750;28;20028;-62
2021/10/05 13:13:55;;;;;;;8.90;6.65;;;;;;;;;;5035624;28;20029;-63
2021/10/05 13:16:20;;;;;;;10.95;6.88;;;;;;;;;;5037084;28;20033;-62
2021/10/05 13:18:46;;;;;;;14.65;8.60;;;;;;;;;;5035846;28;20079;-62
2021/10/05 13:21:11;;;;;;;10.65;6.55;;;;;;;;;;5040838;28;20450;-62
2021/10/05 13:23:36;;;;;;;18.23;8.65;;;;;;;;;;5035407;28;20025;-63
2021/10/05 13:26:02;;;;;;;14.50;6.47;;;;;;;;;;5035683;28;20025;-62
2021/10/05 13:28:27;;;;;;;8.95;7.00;;;;;;;;;;5034808;28;20045;-62
2021/10/05 13:30:53;;;;;;;14.88;7.70;;;;;;;;;;5036406;28;20030;-63
2021/10/05 13:33:18;;;;;;;11.45;6.72;;;;;;;;;;5035362;28;20028;-62
2021/10/05 13:35:44;;;;;;;7.88;6.45;;;;;;;;;;5035681;28;20087;-63
2021/10/05 13:38:09;;;;;;;9.68;7.32;;;;;;;;;;5040972;28;20086;-63
2021/10/05 13:40:41;;;;;;;9.70;7.65;;;;;;;;;;5035520;28;20049;-62
2021/10/05 13:43:06;;;;;;;12.10;8.23;;;;;;;;;;5034627;28;20028;-62
2021/10/05 13:45:32;;;;;;;19.20;9.27;;;;;;;;;;5037895;28;20466;-63
2021/10/05 13:47:57;;;;;;;11.20;7.32;;;;;;;;;;5036669;28;20021;-62
2021/10/05 13:50:22;;;;;;;11.57;6.78;;;;;;;;;;5041558;28;20028;-63
2021/10/05 13:52:48;;;;;;;8.10;6.88;;;;;;;;;;5024077;28;20734;-62
2021/10/05 13:55:13;;;;;;;10.68;7.53;;;;;;;;;;5036270;28;20025;-63
2021/10/05 13:57:39;;;;;;;11.02;6.93;;;;;;;;;;5032181;28;20353;-62
2021/10/05 14:00:06;;;;;;;12.77;7.78;;;;;;;;;;5041624;28;20069;-63
2021/10/05 14:02:31;;;;;;;12.27;8.25;;;;;;;;;;5036865;28;20025;-63
2021/10/05 14:04:57;;;;;;;12.52;6.13;;;;;;;;;;5033790;28;20027;-63
2021/10/05 14:07:22;;;;;;;13.32;7.05;;;;;;;;;;5041665;28;20191;-63
2021/10/05 14:09:47;;;;;;;14.57;9.13;;;;;;;;;;5024416;28;20194;-62
2021/10/05 14:12:13;;;;;;;16.65;7.68;;;;;;;;;;5040493;28;20028;-60
2021/10/05 14:14:39;;;;;;;10.63;7.35;;;;;;;;;;5038304;28;20018;-62
2021/10/05 14:17:05;;;;;;;8.13;6.53;;;;;;;;;;5038583;28;20036;-62
2021/10/05 14:19:31;;;;;;;20.80;10.45;;;;;;;;;;5035226;28;20030;-62
2021/10/05 14:21:56;;;;;;;9.27;7.47;;;;;;;;;;5034255;28;20029;-64